createdAt,value
2022-12-19T00:00:48.434Z,-0.54
2022-12-19T00:01:48.604Z,-0.52
2022-12-19T00:02:52.540Z,-0.51
2022-12-19T00:03:48.450Z,-0.52
2022-12-19T00:04:48.404Z,-0.51
2022-12-19T00:05:48.499Z,-0.51
2022-12-19T00:06:48.361Z,-0.54
2022-12-19T00:07:48.366Z,-0.52
2022-12-19T00:08:48.346Z,-0.51
2022-12-19T00:09:48.402Z,-0.52
2022-12-19T00:10:48.315Z,-0.51
2022-12-19T00:11:48.334Z,-0.49
2022-12-19T00:12:48.307Z,-0.51
2022-12-19T00:13:48.286Z,-0.47
2022-12-19T00:14:48.287Z,-0.46
2022-12-19T00:15:48.321Z,-0.46
2022-12-19T00:16:48.255Z,-0.46
2022-12-19T00:17:48.267Z,-0.42
2022-12-19T00:18:48.228Z,-0.40
2022-12-19T00:19:48.222Z,-0.40
2022-12-19T00:20:48.227Z,-0.36
2022-12-19T00:21:48.215Z,-0.34
2022-12-19T00:22:48.214Z,-0.34
2022-12-19T00:23:48.190Z,-0.34
2022-12-19T00:24:48.178Z,-0.34
2022-12-19T00:25:48.179Z,-0.33
2022-12-19T00:26:48.160Z,-0.26
2022-12-19T00:27:48.157Z,-0.28
2022-12-19T00:28:48.148Z,-0.28
2022-12-19T00:29:48.141Z,-0.28
2022-12-19T00:30:48.106Z,-0.26
2022-12-19T00:31:48.181Z,-0.23
2022-12-19T00:32:48.077Z,-0.22
2022-12-19T00:33:48.096Z,-0.23
2022-12-19T00:34:48.090Z,-0.23
2022-12-19T00:35:48.076Z,-0.25
2022-12-19T00:36:48.043Z,-0.25
2022-12-19T00:37:49.745Z,-0.25
2022-12-19T00:38:48.030Z,-0.22
2022-12-19T00:39:48.012Z,-0.25
2022-12-19T00:40:48.070Z,-0.25
2022-12-19T00:41:48.006Z,-0.26
2022-12-19T00:42:53.413Z,-0.22
2022-12-19T00:43:48.985Z,-0.22
2022-12-19T00:44:47.968Z,-0.25
2022-12-19T00:45:48.061Z,-0.25
2022-12-19T00:46:52.790Z,-0.25
2022-12-19T00:47:48.950Z,-0.23
2022-12-19T00:48:47.913Z,-0.21
2022-12-19T00:49:47.930Z,-0.18
2022-12-19T00:50:47.881Z,-0.18
2022-12-19T00:51:47.911Z,-0.18
2022-12-19T00:52:47.882Z,-0.19
2022-12-19T00:53:48.307Z,-0.18
2022-12-19T00:54:47.907Z,-0.19
2022-12-19T00:55:47.866Z,-0.18
2022-12-19T00:56:47.842Z,-0.16
2022-12-19T00:57:47.843Z,-0.16
2022-12-19T00:58:47.869Z,-0.15
2022-12-19T00:59:47.818Z,-0.16
2022-12-19T01:00:47.912Z,-0.18
2022-12-19T01:01:47.967Z,-0.19
2022-12-19T01:02:47.847Z,-0.19
2022-12-19T01:04:27.227Z,-0.19
2022-12-19T01:04:48.764Z,-0.18
2022-12-19T01:05:47.782Z,-0.18
2022-12-19T01:06:47.752Z,-0.16
2022-12-19T01:07:47.741Z,-0.16
2022-12-19T01:08:47.715Z,-0.15
2022-12-19T01:09:47.710Z,-0.14
2022-12-19T01:10:47.721Z,-0.11
2022-12-19T01:11:47.762Z,-0.10
2022-12-19T01:12:47.732Z,-0.10
2022-12-19T01:13:47.698Z,-0.08
2022-12-19T01:14:47.634Z,-0.07
2022-12-19T01:15:47.650Z,-0.05
2022-12-19T01:16:47.747Z,-0.05
2022-12-19T01:17:47.623Z,-0.03
2022-12-19T01:18:47.613Z,-0.01
2022-12-19T01:19:47.612Z,0.00
2022-12-19T01:20:47.565Z,0.00
2022-12-19T01:21:47.563Z,0.02
2022-12-19T01:22:47.671Z,0.04
2022-12-19T01:23:47.578Z,0.07
2022-12-19T01:24:47.530Z,0.07
2022-12-19T01:25:47.527Z,0.07
2022-12-19T01:26:47.506Z,0.07
2022-12-19T01:27:47.510Z,0.10
2022-12-19T01:28:47.506Z,0.10
2022-12-19T01:29:52.212Z,0.10
2022-12-19T01:30:48.479Z,0.10
2022-12-19T01:31:47.576Z,0.13
2022-12-19T01:32:47.451Z,0.11
2022-12-19T01:33:47.472Z,0.14
2022-12-19T01:34:47.461Z,0.11
2022-12-19T01:35:47.449Z,0.11
2022-12-19T01:36:47.430Z,0.11
2022-12-19T01:37:47.415Z,0.08
2022-12-19T01:38:47.390Z,0.10
2022-12-19T01:39:47.384Z,0.10
2022-12-19T01:40:47.370Z,0.10
2022-12-19T01:41:47.371Z,0.08
2022-12-19T01:42:47.590Z,0.14
2022-12-19T01:43:47.371Z,0.15
2022-12-19T01:44:47.347Z,0.14
2022-12-19T01:45:47.411Z,0.14
2022-12-19T01:46:47.335Z,0.13
2022-12-19T01:47:47.497Z,0.15
2022-12-19T01:48:47.287Z,0.17
2022-12-19T01:49:47.290Z,0.17
2022-12-19T01:51:00.652Z,0.18
2022-12-19T01:51:48.289Z,0.20
2022-12-19T01:52:47.251Z,0.21
2022-12-19T01:53:48.917Z,0.24
2022-12-19T01:54:47.220Z,0.24
2022-12-19T01:55:47.231Z,0.23
2022-12-19T01:56:47.185Z,0.23
2022-12-19T01:57:47.166Z,0.23
2022-12-19T01:58:47.168Z,0.24
2022-12-19T01:59:47.143Z,0.26
2022-12-19T02:00:47.203Z,0.29
2022-12-19T02:01:51.681Z,0.28
2022-12-19T02:02:48.196Z,0.26
2022-12-19T02:03:47.106Z,0.31
2022-12-19T02:04:47.098Z,0.31
2022-12-19T02:05:47.103Z,0.32
2022-12-19T02:06:47.056Z,0.31
2022-12-19T02:07:47.061Z,0.31
2022-12-19T02:08:47.070Z,0.31
2022-12-19T02:09:47.060Z,0.28
2022-12-19T02:10:47.016Z,0.26
2022-12-19T02:11:47.022Z,0.28
2022-12-19T02:12:47.014Z,0.33
2022-12-19T02:13:47.153Z,0.33
2022-12-19T02:14:46.991Z,0.35
2022-12-19T02:15:47.032Z,0.35
2022-12-19T02:16:47.015Z,0.41
2022-12-19T02:17:48.793Z,0.44
2022-12-19T02:18:47.951Z,0.44
2022-12-19T02:19:46.962Z,0.55
2022-12-19T02:20:46.957Z,0.57
2022-12-19T02:21:46.954Z,0.61
2022-12-19T02:22:46.927Z,0.66
2022-12-19T02:23:46.932Z,0.69
2022-12-19T02:24:46.880Z,0.68
2022-12-19T02:25:46.895Z,0.68
2022-12-19T02:26:46.870Z,0.68
2022-12-19T02:27:46.873Z,0.73
2022-12-19T02:28:46.868Z,0.75
2022-12-19T02:29:46.849Z,0.80
2022-12-19T02:30:46.842Z,0.80
2022-12-19T02:31:46.876Z,0.80
2022-12-19T02:32:46.821Z,0.75
2022-12-19T02:33:46.799Z,0.78
2022-12-19T02:34:46.793Z,0.73
2022-12-19T02:35:46.789Z,0.76
2022-12-19T02:36:46.891Z,0.76
2022-12-19T02:37:46.770Z,0.73
2022-12-19T02:38:46.761Z,0.76
2022-12-19T02:39:46.762Z,0.87
2022-12-19T02:40:46.719Z,0.86
2022-12-19T02:41:47.734Z,0.87
2022-12-19T02:42:46.729Z,0.88
2022-12-19T02:43:46.695Z,0.97
2022-12-19T02:44:46.866Z,1.02
2022-12-19T02:45:46.724Z,0.98
2022-12-19T02:46:46.687Z,0.93
2022-12-19T02:47:46.663Z,0.90
2022-12-19T02:48:46.677Z,0.88
2022-12-19T02:49:46.649Z,0.90
2022-12-19T02:50:50.185Z,0.91
2022-12-19T02:51:46.621Z,0.88
2022-12-19T02:52:46.597Z,0.86
2022-12-19T02:53:46.634Z,0.86
2022-12-19T02:54:46.573Z,0.84
2022-12-19T02:55:46.602Z,0.83
2022-12-19T02:56:46.582Z,0.86
2022-12-19T02:57:46.593Z,0.84
2022-12-19T02:58:46.674Z,0.83
2022-12-19T02:59:46.552Z,0.80
2022-12-19T03:00:46.514Z,0.83
2022-12-19T03:01:46.633Z,0.79
2022-12-19T03:02:55.940Z,0.79
2022-12-19T03:03:47.506Z,0.80
2022-12-19T03:04:46.486Z,0.80
2022-12-19T03:05:46.492Z,0.86
2022-12-19T03:06:46.453Z,0.86
2022-12-19T03:07:46.442Z,0.88
2022-12-19T03:08:46.434Z,0.88
2022-12-19T03:09:46.424Z,0.90
2022-12-19T03:10:46.451Z,0.91
2022-12-19T03:11:46.467Z,0.93
2022-12-19T03:12:46.434Z,0.91
2022-12-19T03:13:46.411Z,0.91
2022-12-19T03:14:46.398Z,0.93
2022-12-19T03:15:46.476Z,0.96
2022-12-19T03:16:46.384Z,0.98
2022-12-19T03:17:46.352Z,0.97
2022-12-19T03:18:46.359Z,0.94
2022-12-19T03:19:46.326Z,0.94
2022-12-19T03:20:46.320Z,0.91
2022-12-19T03:21:46.297Z,0.91
2022-12-19T03:22:46.326Z,0.94
2022-12-19T03:23:46.285Z,1.00
2022-12-19T03:24:46.311Z,1.02
2022-12-19T03:25:46.262Z,0.98
2022-12-19T03:26:46.294Z,0.94
2022-12-19T03:27:46.244Z,0.94
2022-12-19T03:28:46.243Z,0.93
2022-12-19T03:29:46.233Z,0.96
2022-12-19T03:30:46.284Z,0.94
2022-12-19T03:31:46.216Z,0.93
2022-12-19T03:32:46.217Z,0.93
2022-12-19T03:33:46.181Z,0.98
2022-12-19T03:34:46.212Z,0.97
2022-12-19T03:35:46.165Z,0.96
2022-12-19T03:36:46.162Z,1.00
2022-12-19T03:37:46.155Z,1.05
2022-12-19T03:38:46.149Z,1.09
2022-12-19T03:39:46.137Z,1.12
2022-12-19T03:40:46.132Z,1.12
2022-12-19T03:41:46.113Z,1.14
2022-12-19T03:42:46.108Z,1.14
2022-12-19T03:43:46.071Z,1.15
2022-12-19T03:44:46.080Z,1.15
2022-12-19T03:45:46.145Z,1.11
2022-12-19T03:46:46.242Z,1.14
2022-12-19T03:47:46.046Z,1.18
2022-12-19T03:48:46.044Z,1.23
2022-12-19T03:49:46.022Z,1.26
2022-12-19T03:50:46.015Z,1.27
2022-12-19T03:51:45.984Z,1.29
2022-12-19T03:52:45.996Z,1.33
2022-12-19T03:53:45.971Z,1.30
2022-12-19T03:54:45.973Z,1.29
2022-12-19T03:55:45.945Z,1.33
2022-12-19T03:56:45.969Z,1.32
2022-12-19T03:57:45.934Z,1.29
2022-12-19T03:58:45.922Z,1.29
2022-12-19T03:59:45.929Z,1.34
2022-12-19T04:00:45.922Z,1.36
2022-12-19T04:01:46.026Z,1.40
2022-12-19T04:02:45.913Z,1.40
2022-12-19T04:03:45.930Z,1.40
2022-12-19T04:04:45.891Z,1.42
2022-12-19T04:05:45.870Z,1.47
2022-12-19T04:06:45.842Z,1.50
2022-12-19T04:07:45.827Z,1.51
2022-12-19T04:08:45.815Z,1.48
2022-12-19T04:09:45.814Z,1.50
2022-12-19T04:10:45.817Z,1.51
2022-12-19T04:11:45.787Z,1.55
2022-12-19T04:12:45.777Z,1.60
2022-12-19T04:13:45.768Z,1.63
2022-12-19T04:14:45.777Z,1.68
2022-12-19T04:15:45.764Z,1.70
2022-12-19T04:16:45.771Z,1.72
2022-12-19T04:17:45.784Z,1.81
2022-12-19T04:18:45.735Z,1.86
2022-12-19T04:19:45.731Z,1.86
2022-12-19T04:20:45.766Z,1.88
2022-12-19T04:21:45.683Z,1.91
2022-12-19T04:22:45.665Z,1.93
2022-12-19T04:23:45.641Z,1.98
2022-12-19T04:24:45.679Z,1.95
2022-12-19T04:25:45.637Z,2.03
2022-12-19T04:26:45.630Z,2.03
2022-12-19T04:27:45.600Z,2.12
2022-12-19T04:28:45.627Z,2.14
2022-12-19T04:29:45.600Z,2.12
2022-12-19T04:30:45.659Z,2.14
2022-12-19T04:31:45.575Z,2.10
2022-12-19T04:32:45.564Z,2.10
2022-12-19T04:33:45.572Z,2.12
2022-12-19T04:34:45.549Z,2.10
2022-12-19T04:35:45.556Z,2.14
2022-12-19T04:36:45.521Z,2.18
2022-12-19T04:37:45.502Z,2.16
2022-12-19T04:38:45.517Z,2.12
2022-12-19T04:39:45.491Z,2.07
2022-12-19T04:40:45.487Z,2.06
2022-12-19T04:41:45.475Z,2.05
2022-12-19T04:42:45.467Z,2.05
2022-12-19T04:43:45.440Z,2.02
2022-12-19T04:44:45.434Z,1.98
2022-12-19T04:45:45.430Z,1.98
2022-12-19T04:46:45.497Z,1.93
2022-12-19T04:47:45.402Z,1.91
2022-12-19T04:48:45.588Z,1.87
2022-12-19T04:49:45.379Z,1.86
2022-12-19T04:50:45.392Z,1.84
2022-12-19T04:51:45.376Z,1.81
2022-12-19T04:52:45.357Z,1.80
2022-12-19T04:53:45.344Z,1.77
2022-12-19T04:54:45.334Z,1.77
2022-12-19T04:55:45.313Z,1.76
2022-12-19T04:56:45.327Z,1.80
2022-12-19T04:57:45.316Z,1.80
2022-12-19T04:58:45.603Z,1.79
2022-12-19T04:59:45.286Z,1.79
2022-12-19T05:00:45.266Z,1.83
2022-12-19T05:01:45.346Z,1.87
2022-12-19T05:02:45.402Z,1.88
2022-12-19T05:03:47.852Z,1.88
2022-12-19T05:04:46.236Z,1.91
2022-12-19T05:05:45.218Z,1.90
2022-12-19T05:06:45.210Z,1.91
2022-12-19T05:07:45.187Z,1.93
2022-12-19T05:08:45.188Z,1.90
2022-12-19T05:09:45.168Z,1.95
2022-12-19T05:10:45.214Z,2.02
2022-12-19T05:11:45.147Z,2.00
2022-12-19T05:12:45.132Z,2.03
2022-12-19T05:13:45.141Z,2.02
2022-12-19T05:14:45.124Z,2.02
2022-12-19T05:15:45.141Z,2.03
2022-12-19T05:16:45.093Z,2.02
2022-12-19T05:17:45.083Z,2.05
2022-12-19T05:18:45.117Z,2.09
2022-12-19T05:19:45.081Z,2.09
2022-12-19T05:20:45.069Z,2.06
2022-12-19T05:21:45.050Z,2.12
2022-12-19T05:22:45.034Z,2.09
2022-12-19T05:23:45.011Z,2.09
2022-12-19T05:24:45.027Z,2.09
2022-12-19T05:25:44.981Z,2.10
2022-12-19T05:26:45.019Z,2.14
2022-12-19T05:27:44.987Z,2.16
2022-12-19T05:28:44.980Z,2.24
2022-12-19T05:29:44.966Z,2.27
2022-12-19T05:30:49.279Z,2.28
2022-12-19T05:31:45.980Z,2.25
2022-12-19T05:32:44.936Z,2.24
2022-12-19T05:33:44.910Z,2.23
2022-12-19T05:34:44.945Z,2.20
2022-12-19T05:35:44.872Z,2.16
2022-12-19T05:36:44.912Z,2.16
2022-12-19T05:37:44.889Z,2.10
2022-12-19T05:38:44.907Z,2.09
2022-12-19T05:39:44.863Z,2.06
2022-12-19T05:40:44.849Z,2.06
2022-12-19T05:41:48.852Z,2.05
2022-12-19T05:42:44.834Z,2.06
2022-12-19T05:43:44.803Z,2.05
2022-12-19T05:44:45.356Z,2.02
2022-12-19T05:45:44.800Z,2.02
2022-12-19T05:46:44.865Z,2.00
2022-12-19T05:47:44.770Z,1.99
2022-12-19T05:48:44.784Z,2.02
2022-12-19T05:49:44.726Z,1.99
2022-12-19T05:50:44.932Z,2.00
2022-12-19T05:51:44.733Z,2.00
2022-12-19T05:52:44.727Z,1.93
2022-12-19T05:53:44.732Z,1.91
2022-12-19T05:54:44.687Z,1.90
2022-12-19T05:55:44.677Z,1.91
2022-12-19T05:56:44.714Z,1.88
2022-12-19T05:57:44.668Z,1.90
2022-12-19T05:58:44.658Z,1.90
2022-12-19T05:59:44.663Z,1.87
2022-12-19T06:00:44.649Z,1.84
2022-12-19T06:01:44.774Z,1.86
2022-12-19T06:02:44.779Z,1.87
2022-12-19T06:03:44.668Z,1.87
2022-12-19T06:04:44.591Z,1.88
2022-12-19T06:05:44.592Z,1.86
2022-12-19T06:06:44.787Z,1.86
2022-12-19T06:07:44.549Z,1.86
2022-12-19T06:08:44.576Z,1.83
2022-12-19T06:09:44.745Z,1.83
2022-12-19T06:10:44.542Z,1.81
2022-12-19T06:11:44.511Z,1.84
2022-12-19T06:12:44.516Z,1.83
2022-12-19T06:13:44.495Z,1.80
2022-12-19T06:14:44.548Z,1.79
2022-12-19T06:15:44.501Z,1.77
2022-12-19T06:16:44.568Z,1.76
2022-12-19T06:17:44.500Z,1.76
2022-12-19T06:18:45.321Z,1.76
2022-12-19T06:19:44.457Z,1.76
2022-12-19T06:20:44.420Z,1.80
2022-12-19T06:21:48.238Z,1.83
2022-12-19T06:22:44.426Z,1.80
2022-12-19T06:23:44.378Z,1.77
2022-12-19T06:24:44.384Z,1.79
2022-12-19T06:25:44.366Z,1.77
2022-12-19T06:26:44.577Z,1.73
2022-12-19T06:27:44.376Z,1.72
2022-12-19T06:28:44.340Z,1.76
2022-12-19T06:29:44.324Z,1.77
2022-12-19T06:30:44.331Z,1.80
2022-12-19T06:31:44.335Z,1.77
2022-12-19T06:32:44.287Z,1.70
2022-12-19T06:33:44.283Z,1.72
2022-12-19T06:35:03.653Z,1.79
2022-12-19T06:35:45.252Z,1.77
2022-12-19T06:36:44.261Z,1.80
2022-12-19T06:37:44.243Z,1.86
2022-12-19T06:38:44.241Z,1.87
2022-12-19T06:39:44.224Z,1.88
2022-12-19T06:40:44.223Z,1.88
2022-12-19T06:41:44.196Z,1.87
2022-12-19T06:42:44.214Z,1.84
2022-12-19T06:43:46.919Z,1.81
2022-12-19T06:44:45.159Z,1.79
2022-12-19T06:45:44.223Z,1.80
2022-12-19T06:46:44.146Z,1.80
2022-12-19T06:47:44.128Z,1.79
2022-12-19T06:48:44.120Z,1.79
2022-12-19T06:49:44.456Z,1.79
2022-12-19T06:50:44.103Z,1.76
2022-12-19T06:51:44.121Z,1.77
2022-12-19T06:52:44.148Z,1.77
2022-12-19T06:53:44.061Z,1.76
2022-12-19T06:54:44.058Z,1.80
2022-12-19T06:55:44.047Z,1.79
2022-12-19T06:56:44.046Z,1.73
2022-12-19T06:57:44.049Z,1.76
2022-12-19T06:58:44.077Z,1.73
2022-12-19T06:59:44.005Z,1.70
2022-12-19T07:00:44.015Z,1.70
2022-12-19T07:01:44.065Z,1.68
2022-12-19T07:02:44.078Z,1.66
2022-12-19T07:04:42.432Z,1.69
2022-12-19T07:05:39.665Z,1.65
2022-12-19T07:06:42.343Z,1.65
2022-12-19T07:07:40.658Z,1.65
2022-12-19T07:08:39.613Z,1.72
2022-12-19T07:09:39.642Z,1.68
2022-12-19T07:10:39.656Z,1.70
2022-12-19T07:11:39.606Z,1.70
2022-12-19T07:12:39.597Z,1.66
2022-12-19T07:13:39.591Z,1.65
2022-12-19T07:14:39.567Z,1.65
2022-12-19T07:15:39.562Z,1.62
2022-12-19T07:16:39.601Z,1.60
2022-12-19T07:17:39.542Z,1.63
2022-12-19T07:18:39.530Z,1.62
2022-12-19T07:19:39.525Z,1.63
2022-12-19T07:20:44.806Z,1.63
2022-12-19T07:21:40.531Z,1.65
2022-12-19T07:22:39.492Z,1.63
2022-12-19T07:23:39.592Z,1.66
2022-12-19T07:24:39.458Z,1.65
2022-12-19T07:25:39.456Z,1.63
2022-12-19T07:26:39.455Z,1.65
2022-12-19T07:27:39.439Z,1.63
2022-12-19T07:28:39.407Z,1.62
2022-12-19T07:29:39.427Z,1.65
2022-12-19T07:30:39.402Z,1.68
2022-12-19T07:31:39.416Z,1.72
2022-12-19T07:32:39.371Z,1.72
2022-12-19T07:33:39.371Z,1.72
2022-12-19T07:34:39.360Z,1.73
2022-12-19T07:35:39.383Z,1.76
2022-12-19T07:36:39.324Z,1.76
2022-12-19T07:37:39.325Z,1.73
2022-12-19T07:38:39.299Z,1.77
2022-12-19T07:39:39.328Z,1.77
2022-12-19T07:40:39.298Z,1.77
2022-12-19T07:41:39.318Z,1.77
2022-12-19T07:42:39.281Z,1.79
2022-12-19T07:43:39.267Z,1.83
2022-12-19T07:44:39.254Z,1.86
2022-12-19T07:45:39.375Z,1.86
2022-12-19T07:46:39.230Z,1.84
2022-12-19T07:47:39.233Z,1.83
2022-12-19T07:48:39.253Z,1.83
2022-12-19T07:49:39.220Z,1.84
2022-12-19T07:50:39.187Z,1.86
2022-12-19T07:51:39.176Z,1.86
2022-12-19T07:52:39.173Z,1.87
2022-12-19T07:53:39.172Z,1.84
2022-12-19T07:54:39.229Z,1.90
2022-12-19T07:55:39.147Z,1.95
2022-12-19T07:56:39.140Z,1.98
2022-12-19T07:57:39.117Z,1.99
2022-12-19T07:58:39.103Z,2.00
2022-12-19T07:59:39.578Z,2.02
2022-12-19T08:00:39.088Z,2.06
2022-12-19T08:01:39.285Z,2.06
2022-12-19T08:02:39.218Z,2.07
2022-12-19T08:03:39.071Z,2.07
2022-12-19T08:04:39.049Z,2.07
2022-12-19T08:05:39.039Z,2.09
2022-12-19T08:06:41.407Z,2.10
2022-12-19T08:07:39.028Z,2.16
2022-12-19T08:08:39.026Z,2.16
2022-12-19T08:09:38.992Z,2.20
2022-12-19T08:10:38.978Z,2.23
2022-12-19T08:11:38.973Z,2.24
2022-12-19T08:12:38.958Z,2.24
2022-12-19T08:13:46.004Z,2.27
2022-12-19T08:14:39.923Z,2.25
2022-12-19T08:15:38.947Z,2.30
2022-12-19T08:17:10.909Z,2.30
2022-12-19T08:17:39.963Z,2.30
2022-12-19T08:18:38.913Z,2.34
2022-12-19T08:19:38.952Z,2.36
2022-12-19T08:20:38.884Z,2.36
2022-12-19T08:21:38.883Z,2.39
2022-12-19T08:22:38.840Z,2.41
2022-12-19T08:23:38.892Z,2.43
2022-12-19T08:24:38.825Z,2.45
2022-12-19T08:25:38.901Z,2.42
2022-12-19T08:26:43.162Z,2.43
2022-12-19T08:27:39.810Z,2.41
2022-12-19T08:28:38.802Z,2.42
2022-12-19T08:29:38.796Z,2.41
2022-12-19T08:30:38.816Z,2.39
2022-12-19T08:31:38.767Z,2.41
2022-12-19T08:32:38.775Z,2.41
2022-12-19T08:33:38.758Z,2.41
2022-12-19T08:34:38.731Z,2.41
2022-12-19T08:35:38.736Z,2.41
2022-12-19T08:36:38.695Z,2.41
2022-12-19T08:37:38.732Z,2.43
2022-12-19T08:38:38.682Z,2.43
2022-12-19T08:39:38.684Z,2.46
2022-12-19T08:40:42.826Z,2.52
2022-12-19T08:41:39.679Z,2.54
2022-12-19T08:42:38.683Z,2.59
2022-12-19T08:43:38.648Z,2.57
2022-12-19T08:44:38.628Z,2.59
2022-12-19T08:45:38.681Z,2.60
2022-12-19T08:46:38.738Z,2.60
2022-12-19T08:47:38.624Z,2.59
2022-12-19T08:48:38.600Z,2.63
2022-12-19T08:49:38.583Z,2.63
2022-12-19T08:50:38.584Z,2.67
2022-12-19T08:51:38.578Z,2.74
2022-12-19T08:52:38.551Z,2.72
2022-12-19T08:53:38.556Z,2.75
2022-12-19T08:54:38.520Z,2.77
2022-12-19T08:55:38.552Z,2.77
2022-12-19T08:56:38.630Z,2.75
2022-12-19T08:57:39.512Z,2.78
2022-12-19T08:58:38.491Z,2.79
2022-12-19T08:59:38.484Z,2.87
2022-12-19T09:00:38.465Z,2.90
2022-12-19T09:01:38.565Z,2.89
2022-12-19T09:02:38.780Z,2.85
2022-12-19T09:04:50.220Z,2.87
2022-12-19T09:05:50.851Z,2.89
2022-12-19T09:06:05.021Z,2.89
2022-12-19T09:06:39.431Z,2.89
2022-12-19T09:07:38.779Z,2.89
2022-12-19T09:08:38.373Z,2.89
2022-12-19T09:09:38.389Z,2.90
2022-12-19T09:10:38.425Z,2.92
2022-12-19T09:11:46.598Z,2.90
2022-12-19T09:12:39.344Z,2.92
2022-12-19T09:13:38.461Z,2.93
2022-12-19T09:14:38.318Z,2.93
2022-12-19T09:15:38.420Z,2.93
2022-12-19T09:16:38.354Z,2.93
2022-12-19T09:17:38.316Z,2.93
2022-12-19T09:18:38.287Z,2.95
2022-12-19T09:19:38.267Z,2.96
2022-12-19T09:20:38.260Z,2.96
2022-12-19T09:21:38.247Z,2.95
2022-12-19T09:22:38.228Z,2.96
2022-12-19T09:23:38.237Z,2.95
2022-12-19T09:24:38.208Z,2.95
2022-12-19T09:25:38.214Z,2.95
2022-12-19T09:26:38.189Z,2.95
2022-12-19T09:28:09.281Z,2.92
2022-12-19T09:28:39.164Z,2.92
2022-12-19T09:29:38.160Z,2.95
2022-12-19T09:30:38.159Z,2.96
2022-12-19T09:31:38.163Z,2.95
2022-12-19T09:32:38.113Z,2.93
2022-12-19T09:33:43.431Z,2.97
2022-12-19T09:34:39.345Z,3.00
2022-12-19T09:35:38.137Z,3.06
2022-12-19T09:36:38.095Z,3.05
2022-12-19T09:37:38.088Z,3.10
2022-12-19T09:38:38.356Z,3.14
2022-12-19T09:39:38.065Z,3.18
2022-12-19T09:40:38.052Z,3.20
2022-12-19T09:41:38.042Z,3.23
2022-12-19T09:42:41.074Z,3.23
2022-12-19T09:43:41.259Z,3.24
2022-12-19T09:44:38.001Z,3.26
2022-12-19T09:45:38.013Z,3.28
2022-12-19T09:46:37.990Z,3.28
2022-12-19T09:47:38.001Z,3.32
2022-12-19T09:48:37.980Z,3.35
2022-12-19T09:49:41.982Z,3.36
2022-12-19T09:50:37.945Z,3.40
2022-12-19T09:51:37.949Z,3.43
2022-12-19T09:52:37.913Z,3.45
2022-12-19T09:53:37.902Z,3.48
2022-12-19T09:54:37.919Z,3.50
2022-12-19T09:55:37.891Z,3.52
2022-12-19T09:56:45.336Z,3.55
2022-12-19T09:57:39.013Z,3.57
2022-12-19T09:58:37.971Z,3.58
2022-12-19T09:59:41.382Z,3.57
2022-12-19T10:00:37.816Z,3.58
2022-12-19T10:01:37.901Z,3.58
2022-12-19T10:02:38.028Z,3.58
2022-12-19T10:03:39.648Z,3.57
2022-12-19T10:04:37.779Z,3.55
2022-12-19T10:07:06.358Z,3.57
2022-12-19T10:07:16.254Z,3.57
2022-12-19T10:08:05.072Z,3.55
2022-12-19T10:09:10.486Z,3.57
2022-12-19T10:12:15.495Z,3.57
2022-12-19T10:12:39.022Z,3.60
2022-12-19T10:12:41.242Z,3.61
2022-12-19T10:12:49.182Z,3.62
2022-12-19T10:13:38.709Z,3.66
2022-12-19T10:14:37.672Z,3.62
2022-12-19T10:15:37.729Z,3.65
2022-12-19T10:16:37.700Z,3.68
2022-12-19T10:17:37.658Z,3.69
2022-12-19T10:18:37.644Z,3.73
2022-12-19T10:19:37.614Z,3.73
2022-12-19T10:20:37.632Z,3.72
2022-12-19T10:22:15.840Z,3.73
2022-12-19T10:22:38.617Z,3.73
2022-12-19T10:23:37.600Z,3.73
2022-12-19T10:24:37.616Z,3.76
2022-12-19T10:25:37.568Z,3.75
2022-12-19T10:26:37.571Z,3.76
2022-12-19T10:27:37.528Z,3.75
2022-12-19T10:28:38.596Z,3.76
2022-12-19T10:29:37.520Z,3.78
2022-12-19T10:30:37.535Z,3.79
2022-12-19T10:31:37.522Z,3.80
2022-12-19T10:32:38.204Z,3.84
2022-12-19T10:33:37.495Z,3.83
2022-12-19T10:34:38.686Z,3.87
2022-12-19T10:35:37.500Z,3.88
2022-12-19T10:37:13.052Z,3.87
2022-12-19T10:37:45.616Z,3.88
2022-12-19T10:38:38.792Z,3.91
2022-12-19T10:39:37.407Z,3.91
2022-12-19T10:40:37.423Z,3.93
2022-12-19T10:41:43.699Z,3.94
2022-12-19T10:42:38.469Z,3.93
2022-12-19T10:43:42.581Z,3.96
2022-12-19T10:44:38.379Z,3.98
2022-12-19T10:45:37.352Z,3.98
2022-12-19T10:46:37.452Z,4.00
2022-12-19T10:47:37.478Z,4.05
2022-12-19T10:48:37.513Z,4.04
2022-12-19T10:49:37.336Z,4.06
2022-12-19T10:50:37.376Z,4.09
2022-12-19T10:51:37.393Z,4.11
2022-12-19T10:52:37.345Z,4.12
2022-12-19T10:53:37.278Z,4.12
2022-12-19T10:54:37.270Z,4.14
2022-12-19T10:55:37.264Z,4.15
2022-12-19T10:56:38.167Z,4.14
2022-12-19T10:57:37.240Z,4.20
2022-12-19T10:58:37.238Z,4.18
2022-12-19T10:59:37.437Z,4.20
2022-12-19T11:00:37.194Z,4.20
2022-12-19T11:01:37.263Z,4.23
2022-12-19T11:02:37.264Z,4.23
2022-12-19T11:03:37.338Z,4.24
2022-12-19T11:04:37.330Z,4.26
2022-12-19T11:05:37.227Z,4.30
2022-12-19T11:06:37.154Z,4.33
2022-12-19T11:07:37.148Z,4.34
2022-12-19T11:08:37.236Z,4.37
2022-12-19T11:09:37.149Z,4.40
2022-12-19T11:11:38.019Z,4.40
2022-12-19T11:14:46.522Z,4.42
2022-12-19T11:17:09.843Z,4.41
2022-12-19T11:18:38.889Z,4.42
2022-12-19T11:19:30.450Z,4.45
2022-12-19T11:20:07.136Z,4.42
2022-12-19T11:24:53.513Z,4.47
2022-12-19T11:26:47.072Z,4.50
2022-12-19T11:27:23.970Z,4.55
2022-12-19T11:29:15.570Z,4.51
2022-12-19T11:29:18.922Z,4.50
2022-12-19T11:29:32.817Z,4.59
2022-12-19T11:29:43.273Z,4.60
2022-12-19T11:29:47.126Z,4.58
2022-12-19T11:30:05.033Z,4.52
2022-12-19T11:30:41.545Z,4.69
2022-12-19T11:30:41.737Z,4.66
2022-12-19T11:30:43.940Z,4.67
2022-12-19T11:30:49.025Z,4.69
2022-12-19T11:32:41.869Z,4.77
2022-12-19T11:33:36.878Z,4.75
2022-12-19T11:34:36.853Z,4.73
2022-12-19T11:35:37.531Z,4.80
2022-12-19T11:36:36.826Z,4.80
2022-12-19T11:37:36.809Z,4.85
2022-12-19T11:38:36.818Z,4.86
2022-12-19T11:39:36.784Z,4.86
2022-12-19T11:40:37.395Z,4.89
2022-12-19T11:41:36.770Z,4.96
2022-12-19T11:42:36.752Z,4.99
2022-12-19T11:43:45.835Z,5.03
2022-12-19T11:44:37.723Z,5.07
2022-12-19T11:45:36.724Z,5.12
2022-12-19T11:46:36.742Z,5.15
2022-12-19T11:47:36.704Z,5.24
2022-12-19T11:48:36.704Z,5.24
2022-12-19T11:49:36.666Z,5.28
2022-12-19T11:50:36.662Z,5.30
2022-12-19T11:51:36.654Z,5.31
2022-12-19T11:53:03.447Z,5.36
2022-12-19T11:53:37.623Z,5.42
2022-12-19T11:54:36.641Z,5.46
2022-12-19T11:55:36.605Z,5.48
2022-12-19T11:56:37.728Z,5.49
2022-12-19T11:57:36.584Z,5.51
2022-12-19T11:58:36.593Z,5.56
2022-12-19T11:59:36.683Z,5.58
2022-12-19T12:00:36.774Z,5.57
2022-12-19T12:01:36.583Z,5.58
2022-12-19T12:02:36.557Z,5.60
2022-12-19T12:03:36.605Z,5.61
2022-12-19T12:04:36.553Z,5.63
2022-12-19T12:05:36.527Z,5.64
2022-12-19T12:06:36.558Z,5.68
2022-12-19T12:08:52.176Z,5.71
2022-12-19T12:10:31.996Z,5.72
2022-12-19T12:13:31.791Z,5.76
2022-12-19T12:15:17.661Z,5.76
2022-12-19T12:17:20.398Z,5.79
2022-12-19T12:22:01.757Z,5.79
2022-12-19T12:23:39.900Z,5.82
2022-12-19T12:27:09.717Z,5.81
2022-12-19T12:28:30.170Z,5.79
2022-12-19T12:31:00.355Z,5.83
2022-12-19T12:31:01.887Z,5.82
2022-12-19T12:31:04.443Z,5.83
2022-12-19T12:31:07.206Z,5.79
2022-12-19T12:31:10.062Z,5.82
2022-12-19T12:31:14.066Z,5.85
2022-12-19T12:31:14.251Z,5.86
2022-12-19T12:31:38.592Z,5.82
2022-12-19T12:31:40.358Z,5.83
2022-12-19T12:31:41.324Z,5.83
2022-12-19T12:31:43.907Z,5.85
2022-12-19T12:31:44.954Z,5.83
2022-12-19T12:31:49.896Z,5.82
2022-12-19T12:31:53.472Z,5.83
2022-12-19T12:35:06.074Z,5.85
2022-12-19T12:35:41.439Z,5.82
2022-12-19T12:35:51.823Z,5.81
2022-12-19T12:35:55.110Z,5.82
2022-12-19T12:38:37.733Z,5.74
2022-12-19T12:39:36.126Z,5.71
2022-12-19T12:40:36.166Z,5.71
2022-12-19T12:41:36.116Z,5.71
2022-12-19T12:42:36.148Z,5.67
2022-12-19T12:43:36.108Z,5.65
2022-12-19T12:44:39.734Z,5.67
2022-12-19T12:45:37.140Z,5.67
2022-12-19T12:46:36.081Z,5.65
2022-12-19T12:47:36.045Z,5.63
2022-12-19T12:48:37.027Z,5.63
2022-12-19T12:49:36.057Z,5.60
2022-12-19T12:50:36.038Z,5.60
2022-12-19T12:51:36.036Z,5.58
2022-12-19T12:52:36.034Z,5.58
2022-12-19T12:53:35.996Z,5.60
2022-12-19T12:54:36.012Z,5.61
2022-12-19T12:55:35.986Z,5.60
2022-12-19T12:56:35.967Z,5.60
2022-12-19T12:57:36.272Z,5.56
2022-12-19T12:58:35.992Z,5.56
2022-12-19T12:59:35.936Z,5.54
2022-12-19T13:00:35.955Z,5.53
2022-12-19T13:01:36.099Z,5.53
2022-12-19T13:02:36.126Z,5.56
2022-12-19T13:03:36.195Z,5.56
2022-12-19T13:04:35.923Z,5.56
2022-12-19T13:05:35.853Z,5.57
2022-12-19T13:06:35.862Z,5.60
2022-12-19T13:07:35.880Z,5.63
2022-12-19T13:08:35.871Z,5.58
2022-12-19T13:09:35.841Z,5.61
2022-12-19T13:10:35.825Z,5.61
2022-12-19T13:11:35.811Z,5.64
2022-12-19T13:12:35.845Z,5.63
2022-12-19T13:13:35.792Z,5.61
2022-12-19T13:14:35.897Z,5.64
2022-12-19T13:15:35.788Z,5.67
2022-12-19T13:16:35.802Z,5.65
2022-12-19T13:17:35.767Z,5.67
2022-12-19T13:18:35.796Z,5.71
2022-12-19T13:19:35.727Z,5.71
2022-12-19T13:20:35.726Z,5.75
2022-12-19T13:21:35.707Z,5.79
2022-12-19T13:22:35.739Z,5.79
2022-12-19T13:23:35.699Z,5.85